Time;durP1;ratioP1;P1;durP2;ratioP2;P2;SDS_P1;SDS_P2;PMS_P1;PMS_P2;Temp;Humidity;BMP_temperature;BMP_pressure;BME280_temperature;BME280_humidity;BME280_pressure;Samples;Min_cycle;Max_cycle;Signal;HPM_P1;HPM_P2
2023/01/29 00:01:06;;;;;;;24.80;16.77;;;3.80;99.90;;;;;;4974530;28;1091504;-49
2023/01/29 00:03:33;;;;;;;24.42;16.25;;;3.80;99.90;;;;;;5013168;28;20050;-46
2023/01/29 00:06:01;;;;;;;26.48;17.20;;;3.70;99.90;;;;;;5013861;28;20108;-45
2023/01/29 00:08:29;;;;;;;25.92;17.25;;;3.80;99.90;;;;;;5011363;28;20064;-46
2023/01/29 00:11:00;;;;;;;32.03;17.63;;;3.80;99.90;;;;;;5013072;28;20054;-48
2023/01/29 00:13:27;;;;;;;28.80;18.05;;;3.70;99.90;;;;;;5010967;28;20111;-47
2023/01/29 00:15:55;;;;;;;27.90;16.92;;;3.70;99.90;;;;;;5012275;28;20135;-47
2023/01/29 00:18:22;;;;;;;26.10;16.92;;;3.70;99.90;;;;;;5011441;28;20057;-46
2023/01/29 00:20:49;;;;;;;29.75;16.83;;;3.70;99.90;;;;;;5011387;28;20064;-47
2023/01/29 00:23:15;;;;;;;27.50;17.05;;;3.70;99.90;;;;;;5013479;28;20050;-44
2023/01/29 00:25:44;;;;;;;25.15;15.85;;;3.70;99.90;;;;;;5012355;28;20049;-47
2023/01/29 00:28:11;;;;;;;26.70;17.38;;;3.70;99.90;;;;;;5012292;28;20062;-45
2023/01/29 00:30:37;;;;;;;29.17;16.77;;;3.70;99.90;;;;;;5011126;28;20046;-48
2023/01/29 00:33:04;;;;;;;22.80;16.98;;;3.70;99.90;;;;;;5013363;28;20080;-47
2023/01/29 00:35:31;;;;;;;25.73;16.52;;;3.80;99.90;;;;;;5019874;28;20049;-46
2023/01/29 00:37:58;;;;;;;30.80;17.27;;;3.80;99.90;;;;;;5012186;28;20061;-48
2023/01/29 00:40:25;;;;;;;29.63;16.70;;;3.80;99.90;;;;;;5011644;28;20054;-49
2023/01/29 00:45:38;;;;;;;25.80;17.10;;;3.80;99.90;;;;;;5007652;28;20410;-48
2023/01/29 00:48:05;;;;;;;27.63;17.30;;;3.80;99.90;;;;;;5011828;28;20124;-44
2023/01/29 00:50:32;;;;;;;28.23;18.65;;;3.80;99.90;;;;;;5010187;28;20499;-45
2023/01/29 00:52:59;;;;;;;27.10;18.33;;;3.90;99.90;;;;;;5012116;28;20058;-48
2023/01/29 00:55:25;;;;;;;27.85;18.27;;;3.80;99.90;;;;;;5012738;28;20482;-48
2023/01/29 00:57:54;;;;;;;29.30;18.17;;;3.80;99.90;;;;;;5011412;28;20050;-46
2023/01/29 01:00:21;;;;;;;33.67;19.42;;;3.90;99.90;;;;;;5010243;28;20054;-48
2023/01/29 01:03:05;;;;;;;31.73;18.38;;;3.90;99.90;;;;;;5004797;28;20057;-46
2023/01/29 01:05:32;;;;;;;35.90;19.40;;;3.90;99.90;;;;;;5011057;28;20391;-45
2023/01/29 01:07:58;;;;;;;33.13;18.90;;;3.90;99.90;;;;;;5011687;28;20042;-44
2023/01/29 01:10:26;;;;;;;27.98;17.52;;;3.80;99.90;;;;;;5012725;28;20108;-46
2023/01/29 01:12:55;;;;;;;29.35;18.05;;;3.90;99.90;;;;;;5011695;28;20478;-46
2023/01/29 01:15:22;;;;;;;28.35;16.85;;;3.90;99.90;;;;;;5012157;28;20074;-45
2023/01/29 01:17:52;;;;;;;30.85;17.88;;;3.90;99.90;;;;;;5011469;28;20054;-43
2023/01/29 01:20:19;;;;;;;27.00;17.60;;;3.90;99.90;;;;;;5012196;28;20054;-46
2023/01/29 01:22:46;;;;;;;27.40;17.55;;;3.90;99.90;;;;;;5015182;28;20058;-46
2023/01/29 01:25:13;;;;;;;27.58;17.05;;;3.90;99.90;;;;;;5015256;28;20058;-46
2023/01/29 01:27:40;;;;;;;27.52;17.45;;;3.90;99.90;;;;;;5016769;28;20445;-47
2023/01/29 01:30:11;;;;;;;27.85;17.30;;;3.90;99.90;;;;;;5016617;28;20413;-46
2023/01/29 01:32:38;;;;;;;26.40;18.07;;;3.90;99.90;;;;;;5015978;28;20498;-47
2023/01/29 01:35:05;;;;;;;32.30;18.83;;;3.90;99.90;;;;;;5030574;28;20304;-49
2023/01/29 01:37:32;;;;;;;25.05;17.20;;;3.90;99.90;;;;;;5014451;28;20100;-50
2023/01/29 01:39:59;;;;;;;28.48;18.05;;;3.90;99.90;;;;;;5013791;28;20922;-47
2023/01/29 01:42:29;;;;;;;26.50;17.50;;;3.90;99.90;;;;;;5015027;28;20115;-49
2023/01/29 01:45:00;;;;;;;28.13;17.27;;;3.90;99.90;;;;;;5014658;28;20050;-46
2023/01/29 01:47:37;;;;;;;25.63;17.23;;;4.00;99.90;;;;;;5011726;28;20109;-47
2023/01/29 01:50:07;;;;;;;27.55;17.42;;;3.90;99.90;;;;;;5012480;28;20050;-49
2023/01/29 01:52:35;;;;;;;27.92;17.80;;;3.90;99.90;;;;;;5013853;28;20464;-50
2023/01/29 01:55:01;;;;;;;28.73;18.52;;;3.90;99.90;;;;;;5015828;28;20596;-45
2023/01/29 01:57:28;;;;;;;28.15;16.50;;;3.90;99.90;;;;;;5015326;28;20054;-47
2023/01/29 01:59:57;;;;;;;27.00;17.92;;;4.00;99.90;;;;;;5014699;28;20058;-49
2023/01/29 02:10:46;;;;;;;28.70;17.85;;;4.00;99.90;;;;;;5013066;28;20555;-48
2023/01/29 02:13:15;;;;;;;26.27;17.33;;;4.00;99.90;;;;;;5015174;28;20557;-46
2023/01/29 02:15:45;;;;;;;31.17;17.95;;;3.90;99.90;;;;;;5012868;28;20078;-50
2023/01/29 02:18:12;;;;;;;30.05;18.20;;;4.00;99.90;;;;;;5014784;28;20104;-43
2023/01/29 02:20:41;;;;;;;25.60;17.95;;;4.00;99.90;;;;;;5014767;28;20612;-47
2023/01/29 02:23:37;;;;;;;25.60;17.80;;;4.00;99.90;;;;;;5014330;28;20073;-48
2023/01/29 02:26:20;;;;;;;28.60;18.38;;;4.00;99.90;;;;;;4987414;28;20081;-45
2023/01/29 02:28:51;;;;;;;25.33;17.77;;;4.00;99.90;;;;;;5013899;28;20054;-49
2023/01/29 02:31:24;;;;;;;26.52;16.35;;;4.00;99.90;;;;;;5004083;28;20060;-47
2023/01/29 02:33:55;;;;;;;28.10;17.80;;;4.00;99.90;;;;;;5014277;28;20138;-47
2023/01/29 02:36:25;;;;;;;;;;;4.00;99.90;;;;;;5014926;28;20046;-45
2023/01/29 02:38:57;;;;;;;27.52;16.33;;;4.00;99.90;;;;;;5015134;28;19921;-46
2023/01/29 02:41:26;;;;;;;26.83;18.60;;;4.00;99.90;;;;;;5015073;28;20049;-49
2023/01/29 02:43:55;;;;;;;27.23;17.92;;;4.00;99.90;;;;;;5015084;28;20046;-44
2023/01/29 02:46:26;;;;;;;26.70;16.92;;;4.00;99.90;;;;;;5013125;28;20466;-51
2023/01/29 02:48:55;;;;;;;28.38;17.70;;;4.00;99.90;;;;;;5015042;28;20046;-44
2023/01/29 02:51:24;;;;;;;29.25;17.45;;;4.00;99.90;;;;;;5013682;28;20108;-47
2023/01/29 02:53:53;;;;;;;26.13;17.73;;;4.00;99.90;;;;;;5014788;28;20453;-48
2023/01/29 02:56:22;;;;;;;26.95;17.52;;;4.00;99.90;;;;;;5012387;28;20120;-46
2023/01/29 02:58:50;;;;;;;27.50;18.02;;;3.90;99.90;;;;;;5013469;28;20494;-45
2023/01/29 03:01:21;;;;;;;25.38;16.75;;;4.00;99.90;;;;;;5011528;28;20596;-48
2023/01/29 03:03:49;;;;;;;25.73;17.60;;;4.00;99.90;;;;;;5014161;28;20064;-46
2023/01/29 03:06:21;;;;;;;26.60;17.75;;;4.00;99.90;;;;;;5010463;28;20046;-44
2023/01/29 03:08:50;;;;;;;27.15;17.92;;;4.00;99.90;;;;;;5009464;28;20085;-49
2023/01/29 03:11:17;;;;;;;27.00;17.23;;;4.00;99.90;;;;;;5014310;28;20057;-50
2023/01/29 03:13:45;;;;;;;25.95;16.98;;;4.00;99.90;;;;;;5014289;28;20096;-46
2023/01/29 03:16:20;;;;;;;25.52;16.63;;;4.00;99.90;;;;;;5012084;28;20053;-47
2023/01/29 03:18:50;;;;;;;25.20;16.77;;;4.00;99.90;;;;;;5013640;28;20050;-44
2023/01/29 03:32:19;;;;;;;26.35;16.85;;;4.00;99.90;;;;;;5017091;28;20054;-46
2023/01/29 03:34:50;;;;;;;27.33;18.80;;;4.00;99.90;;;;;;5012129;28;20045;-47
2023/01/29 03:37:20;;;;;;;26.25;17.48;;;4.00;99.90;;;;;;5014198;28;20049;-46
2023/01/29 03:39:47;;;;;;;29.35;17.77;;;4.00;99.90;;;;;;5013040;28;20053;-48
2023/01/29 03:42:17;;;;;;;25.63;17.60;;;4.00;99.90;;;;;;5014239;28;20112;-46
2023/01/29 03:44:48;;;;;;;26.52;17.63;;;4.00;99.90;;;;;;5011721;28;20054;-46
2023/01/29 03:47:18;;;;;;;28.83;18.63;;;4.00;99.90;;;;;;5011777;28;20108;-44
2023/01/29 03:49:53;;;;;;;29.17;19.38;;;4.00;99.90;;;;;;5012073;28;20061;-46
2023/01/29 03:52:21;;;;;;;28.17;18.85;;;4.00;99.90;;;;;;5013424;28;20108;-47
2023/01/29 03:54:53;;;;;;;28.70;19.20;;;4.00;99.90;;;;;;4993132;28;20109;-44
2023/01/29 03:57:23;;;;;;;26.65;18.88;;;4.00;99.90;;;;;;5011595;28;20104;-47
2023/01/29 03:59:53;;;;;;;31.10;19.60;;;4.00;99.90;;;;;;5012355;28;20132;-44
2023/01/29 04:02:26;;;;;;;31.30;19.48;;;4.10;99.90;;;;;;5011057;28;20494;-47
2023/01/29 04:04:53;;;;;;;33.53;20.25;;;4.00;99.90;;;;;;5011928;28;20053;-47
2023/01/29 04:07:23;;;;;;;32.08;19.67;;;4.00;99.90;;;;;;5012679;28;20085;-49
2023/01/29 04:09:51;;;;;;;30.83;20.08;;;4.00;99.90;;;;;;5011308;28;20053;-47
2023/01/29 04:12:20;;;;;;;30.80;19.48;;;4.00;99.90;;;;;;5012142;28;20132;-46
2023/01/29 04:14:47;;;;;;;29.45;20.60;;;4.10;99.90;;;;;;5025543;28;20058;-47
2023/01/29 04:17:16;;;;;;;33.42;20.65;;;4.10;99.90;;;;;;5011766;28;20099;-48
2023/01/29 04:19:44;;;;;;;29.23;20.17;;;4.10;99.90;;;;;;5011420;28;20054;-47
2023/01/29 04:22:13;;;;;;;32.38;21.30;;;4.10;99.90;;;;;;5012584;28;20103;-47
2023/01/29 04:24:40;;;;;;;31.85;21.77;;;4.10;99.90;;;;;;5012219;28;20053;-45
2023/01/29 04:27:14;;;;;;;34.75;21.60;;;4.10;99.90;;;;;;5011604;28;20104;-46
2023/01/29 04:29:48;;;;;;;30.88;22.08;;;4.10;99.90;;;;;;5011580;28;20085;-47
2023/01/29 04:32:16;;;;;;;31.48;22.20;;;4.10;99.90;;;;;;5012771;28;20482;-44
2023/01/29 04:34:51;;;;;;;31.85;21.95;;;4.10;99.90;;;;;;5011945;28;20559;-48
2023/01/29 04:37:23;;;;;;;34.15;23.17;;;4.10;99.90;;;;;;4996471;28;20049;-47
2023/01/29 04:39:52;;;;;;;34.53;23.25;;;4.20;99.90;;;;;;5012932;28;20046;-47
2023/01/29 04:42:23;;;;;;;33.20;22.42;;;4.20;99.90;;;;;;5012637;28;20072;-48
2023/01/29 04:44:52;;;;;;;31.77;22.55;;;4.20;99.90;;;;;;5010962;28;20058;-47
2023/01/29 04:47:24;;;;;;;34.65;24.33;;;4.10;99.90;;;;;;5010843;28;20050;-44
2023/01/29 04:49:53;;;;;;;;;;;4.10;99.90;;;;;;4996288;28;20105;-48
2023/01/29 04:52:23;;;;;;;33.72;23.05;;;4.10;99.90;;;;;;5010883;28;19921;-48
2023/01/29 04:54:54;;;;;;;35.80;23.00;;;4.10;99.90;;;;;;5011507;28;20094;-49
2023/01/29 04:57:24;;;;;;;35.63;23.90;;;4.10;99.90;;;;;;5012249;28;20552;-49
2023/01/29 04:59:53;;;;;;;34.70;24.05;;;4.10;99.90;;;;;;5010660;28;20410;-48
2023/01/29 05:02:20;;;;;;;32.90;23.45;;;4.10;99.90;;;;;;5009120;28;20494;-47
2023/01/29 05:04:47;;;;;;;37.88;24.17;;;4.10;99.90;;;;;;5011664;28;20456;-48
2023/01/29 05:07:15;;;;;;;37.28;23.90;;;4.10;99.90;;;;;;5010735;28;20058;-44
2023/01/29 05:09:42;;;;;;;34.60;24.85;;;4.10;99.90;;;;;;5010668;28;20050;-47
2023/01/29 05:12:09;;;;;;;33.90;24.08;;;4.20;99.90;;;;;;5008770;28;20073;-45
2023/01/29 05:14:36;;;;;;;38.30;24.15;;;4.20;99.90;;;;;;5019537;28;20046;-46
2023/01/29 05:17:05;;;;;;;37.03;25.05;;;4.20;99.90;;;;;;5008904;28;20090;-46
2023/01/29 05:19:32;;;;;;;34.90;24.50;;;4.20;99.90;;;;;;5012484;28;20054;-46
2023/01/29 05:21:59;;;;;;;32.47;23.92;;;4.20;99.90;;;;;;5011095;28;20054;-46
2023/01/29 05:24:27;;;;;;;37.60;24.83;;;4.20;99.90;;;;;;5009672;28;20056;-47
2023/01/29 05:29:39;;;;;;;33.28;23.63;;;4.20;99.90;;;;;;5009822;28;20050;-48
2023/01/29 05:32:06;;;;;;;36.42;25.40;;;4.20;99.90;;;;;;5009573;28;20572;-44
2023/01/29 05:34:33;;;;;;;34.88;23.17;;;4.20;99.90;;;;;;5010789;28;20050;-47
2023/01/29 05:37:00;;;;;;;33.00;23.00;;;4.20;99.90;;;;;;5010616;28;20046;-47
2023/01/29 05:39:28;;;;;;;32.53;23.15;;;4.20;99.90;;;;;;5011236;28;20469;-45
2023/01/29 05:41:55;;;;;;;39.42;23.95;;;4.20;99.90;;;;;;4996162;28;20054;-48
2023/01/29 05:44:21;;;;;;;32.65;23.67;;;4.20;99.90;;;;;;4992876;28;20105;-47
2023/01/29 05:46:49;;;;;;;34.60;25.13;;;4.20;99.90;;;;;;5005604;28;20058;-46
2023/01/29 05:49:16;;;;;;;35.78;24.13;;;4.20;99.90;;;;;;5011410;28;20054;-48
2023/01/29 05:51:43;;;;;;;33.10;25.20;;;4.20;99.90;;;;;;5009120;28;20050;-50
2023/01/29 05:54:11;;;;;;;35.58;25.25;;;4.20;99.90;;;;;;5010665;28;20104;-45
2023/01/29 05:56:40;;;;;;;36.35;25.45;;;4.10;99.90;;;;;;5010991;28;20053;-46
2023/01/29 05:59:07;;;;;;;35.53;26.00;;;4.20;99.90;;;;;;5011967;28;20058;-46
2023/01/29 06:01:34;;;;;;;34.55;25.08;;;4.20;99.90;;;;;;5007942;28;20045;-44
2023/01/29 06:04:00;;;;;;;36.50;26.42;;;4.20;99.90;;;;;;5009638;28;20506;-47
2023/01/29 06:06:27;;;;;;;36.70;26.15;;;4.10;99.90;;;;;;5010382;28;20128;-45
2023/01/29 06:08:54;;;;;;;33.47;25.17;;;4.10;99.90;;;;;;5009386;28;20402;-46
2023/01/29 06:11:21;;;;;;;36.95;26.25;;;4.10;99.90;;;;;;5013736;28;20548;-45
2023/01/29 06:13:49;;;;;;;35.65;26.90;;;4.10;99.90;;;;;;5015593;28;20092;-47
2023/01/29 06:16:16;;;;;;;37.35;26.25;;;4.10;99.90;;;;;;5012550;28;20084;-49
2023/01/29 06:18:43;;;;;;;39.78;26.50;;;4.20;99.90;;;;;;5014389;28;20548;-49
2023/01/29 06:21:11;;;;;;;36.20;26.70;;;4.10;99.90;;;;;;5014558;28;20054;-49
2023/01/29 06:23:38;;;;;;;38.85;27.55;;;4.10;99.90;;;;;;5012181;28;20053;-50
2023/01/29 06:26:06;;;;;;;42.00;26.92;;;4.10;99.90;;;;;;5012460;28;20061;-49
2023/01/29 06:28:33;;;;;;;39.70;28.55;;;4.10;99.90;;;;;;5011329;28;20394;-42
2023/01/29 06:31:01;;;;;;;35.55;26.52;;;4.20;99.90;;;;;;5030275;28;20058;-50
2023/01/29 06:33:28;;;;;;;39.28;27.33;;;4.10;99.90;;;;;;5011516;28;20108;-48
2023/01/29 06:35:58;;;;;;;38.17;26.27;;;4.10;99.90;;;;;;5013998;28;20131;-48
2023/01/29 06:38:25;;;;;;;37.65;26.92;;;4.10;99.90;;;;;;5014531;28;20096;-48
2023/01/29 06:40:52;;;;;;;40.58;27.70;;;4.10;99.90;;;;;;5012412;28;20045;-44
2023/01/29 06:43:18;;;;;;;37.88;25.70;;;4.10;99.90;;;;;;5013443;28;20057;-43
2023/01/29 06:45:49;;;;;;;38.33;25.63;;;4.10;99.90;;;;;;5013785;28;20049;-48
2023/01/29 06:48:17;;;;;;;37.72;27.77;;;4.10;99.90;;;;;;5013822;28;20475;-50
2023/01/29 06:50:44;;;;;;;39.05;26.50;;;4.10;99.90;;;;;;5015368;28;20100;-47
2023/01/29 06:53:11;;;;;;;38.30;26.88;;;4.10;99.90;;;;;;5012753;28;20057;-45
2023/01/29 06:55:38;;;;;;;40.30;28.27;;;4.10;99.90;;;;;;5029361;28;20112;-45
2023/01/29 06:58:06;;;;;;;35.67;24.88;;;4.10;99.90;;;;;;5013142;28;20081;-44
2023/01/29 07:00:33;;;;;;;37.75;26.60;;;4.10;99.90;;;;;;5009947;28;20494;-44
2023/01/29 07:02:59;;;;;;;34.22;26.17;;;4.10;99.90;;;;;;5015036;28;20064;-48
2023/01/29 07:05:28;;;;;;;42.78;27.83;;;4.10;99.90;;;;;;5014675;28;20049;-44
2023/01/29 07:07:54;;;;;;;40.42;28.05;;;4.10;99.90;;;;;;5011798;28;20100;-44
2023/01/29 07:10:21;;;;;;;39.30;27.23;;;4.10;99.90;;;;;;5012719;28;20452;-48
2023/01/29 07:12:48;;;;;;;42.83;28.80;;;4.10;99.90;;;;;;5012238;28;20088;-50
2023/01/29 07:15:18;;;;;;;39.58;27.23;;;4.10;99.90;;;;;;5012756;28;20107;-49
2023/01/29 07:17:45;;;;;;;39.67;27.58;;;4.10;99.90;;;;;;5011949;28;20406;-45
2023/01/29 07:20:12;;;;;;;37.30;26.77;;;4.10;99.90;;;;;;5008780;28;20052;-49
2023/01/29 07:22:40;;;;;;;40.90;28.90;;;4.10;99.90;;;;;;5011807;28;20042;-48
2023/01/29 07:25:08;;;;;;;42.17;28.60;;;4.10;99.90;;;;;;5011027;28;20073;-46
2023/01/29 07:27:35;;;;;;;41.15;27.75;;;4.10;99.90;;;;;;5014047;28;20053;-48
2023/01/29 07:30:02;;;;;;;40.97;27.83;;;4.10;99.90;;;;;;5013953;28;20042;-47
2023/01/29 07:32:29;;;;;;;40.75;28.33;;;4.10;99.90;;;;;;5014143;28;20564;-45
2023/01/29 07:34:55;;;;;;;40.28;28.25;;;4.10;99.90;;;;;;5011301;28;20061;-49
2023/01/29 07:37:22;;;;;;;41.45;29.00;;;4.10;99.90;;;;;;5010280;28;20752;-46
2023/01/29 07:39:51;;;;;;;44.75;28.83;;;4.10;99.90;;;;;;5011543;28;20486;-42
2023/01/29 07:42:17;;;;;;;40.00;27.20;;;4.10;99.90;;;;;;5010114;28;20044;-44
2023/01/29 07:44:44;;;;;;;41.38;29.10;;;4.10;99.90;;;;;;5009941;28;20465;-49
2023/01/29 07:47:11;;;;;;;44.92;30.40;;;4.00;99.90;;;;;;5011077;28;20093;-44
2023/01/29 07:49:38;;;;;;;46.60;29.58;;;4.10;99.90;;;;;;5013659;28;20494;-44
2023/01/29 07:52:05;;;;;;;53.25;29.25;;;4.10;99.90;;;;;;5010864;28;20084;-45
2023/01/29 07:54:32;;;;;;;42.90;29.25;;;4.10;99.90;;;;;;5012552;28;20050;-45
2023/01/29 07:57:00;;;;;;;43.22;29.50;;;4.10;99.90;;;;;;5009419;28;20100;-45
2023/01/29 07:59:27;;;;;;;41.83;28.35;;;4.10;99.90;;;;;;5007692;28;20081;-47
2023/01/29 08:01:54;;;;;;;45.47;31.52;;;4.10;99.90;;;;;;5008778;28;20100;-45
2023/01/29 08:04:21;;;;;;;48.25;30.48;;;4.10;99.90;;;;;;5012439;28;20078;-44
2023/01/29 08:06:47;;;;;;;46.40;31.80;;;4.10;99.90;;;;;;5012825;28;20607;-45
2023/01/29 08:09:14;;;;;;;45.63;31.63;;;4.10;99.90;;;;;;5007707;28;20050;-44
2023/01/29 08:11:41;;;;;;;46.45;29.27;;;4.10;99.90;;;;;;5011909;28;20465;-46
2023/01/29 08:14:09;;;;;;;45.00;30.40;;;4.10;99.90;;;;;;5009436;28;20185;-47
2023/01/29 08:16:36;;;;;;;48.50;31.25;;;4.10;99.90;;;;;;5003078;28;20552;-44
2023/01/29 08:19:03;;;;;;;48.28;30.45;;;4.10;99.90;;;;;;5010378;28;20081;-47
2023/01/29 08:21:30;;;;;;;46.13;30.27;;;4.10;99.90;;;;;;5009045;28;20053;-45
2023/01/29 08:23:57;;;;;;;47.13;30.90;;;4.20;99.90;;;;;;5010677;28;20049;-50
2023/01/29 08:26:25;;;;;;;47.17;31.90;;;4.20;99.90;;;;;;5009115;28;20131;-46
2023/01/29 08:28:51;;;;;;;47.50;31.05;;;4.20;99.90;;;;;;5006711;28;20046;-50
2023/01/29 08:31:20;;;;;;;50.42;31.45;;;4.10;99.90;;;;;;5010119;28;20054;-45
2023/01/29 08:33:47;;;;;;;48.60;30.70;;;4.20;99.90;;;;;;5008816;28;20054;-45
2023/01/29 08:36:13;;;;;;;49.53;31.20;;;4.20;99.90;;;;;;5011012;28;20096;-44
2023/01/29 08:38:40;;;;;;;47.50;30.42;;;4.20;99.90;;;;;;5010419;28;20081;-47
2023/01/29 08:41:07;;;;;;;45.38;29.75;;;4.20;99.90;;;;;;5007809;28;20058;-45
2023/01/29 08:43:35;;;;;;;48.33;30.23;;;4.30;99.90;;;;;;5012786;28;20465;-45
2023/01/29 08:46:03;;;;;;;46.80;30.30;;;4.30;99.90;;;;;;5012789;28;20088;-45
2023/01/29 08:48:32;;;;;;;46.58;30.98;;;4.30;99.90;;;;;;5020132;28;20099;-44
2023/01/29 08:50:59;;;;;;;48.30;30.50;;;4.30;99.90;;;;;;5012765;28;20057;-44
2023/01/29 08:53:26;;;;;;;48.20;30.90;;;4.30;99.90;;;;;;5009771;28;20113;-45
2023/01/29 08:55:53;;;;;;;47.67;30.35;;;4.40;99.90;;;;;;5011764;28;20494;-45
2023/01/29 08:58:19;;;;;;;47.05;30.30;;;4.40;99.90;;;;;;5011495;28;20104;-45
2023/01/29 09:00:46;;;;;;;52.45;30.10;;;4.40;99.90;;;;;;5012553;28;20058;-47
2023/01/29 09:03:13;;;;;;;51.75;30.85;;;4.50;99.90;;;;;;5007980;28;20572;-44
2023/01/29 09:05:41;;;;;;;47.95;30.60;;;4.50;99.90;;;;;;5009873;28;20192;-47
2023/01/29 09:08:08;;;;;;;46.95;30.55;;;4.50;99.90;;;;;;5006277;28;20081;-46
2023/01/29 09:10:35;;;;;;;45.28;29.52;;;4.50;99.90;;;;;;5011812;28;20104;-47
2023/01/29 09:13:02;;;;;;;43.50;29.50;;;4.50;99.90;;;;;;5010503;28;20100;-49
2023/01/29 09:15:29;;;;;;;45.70;30.95;;;4.50;99.90;;;;;;5011930;28;20061;-47
2023/01/29 09:17:56;;;;;;;45.55;29.58;;;4.60;99.90;;;;;;5006576;28;20102;-43
2023/01/29 09:20:23;;;;;;;48.53;29.55;;;4.50;99.90;;;;;;5005605;28;20096;-44
2023/01/29 09:22:52;;;;;;;47.47;29.70;;;4.60;99.90;;;;;;5011859;28;20082;-45
2023/01/29 09:25:19;;;;;;;46.85;28.73;;;4.60;99.90;;;;;;5010593;28;20053;-44
2023/01/29 09:27:46;;;;;;;50.38;31.85;;;4.60;99.90;;;;;;5011311;28;20057;-42
2023/01/29 09:30:13;;;;;;;43.95;28.60;;;4.60;99.90;;;;;;5011454;28;20470;-42
2023/01/29 09:32:40;;;;;;;48.85;31.00;;;4.60;99.90;;;;;;5010598;28;20430;-43
2023/01/29 09:35:08;;;;;;;48.53;30.73;;;4.70;99.90;;;;;;5005019;28;20081;-48
2023/01/29 09:37:34;;;;;;;46.13;29.65;;;4.70;99.90;;;;;;5008942;28;20054;-41
2023/01/29 09:40:03;;;;;;;43.95;29.92;;;4.80;99.90;;;;;;5012064;28;20568;-44
2023/01/29 09:42:31;;;;;;;43.75;29.77;;;4.80;99.90;;;;;;5008460;28;20127;-43
2023/01/29 09:45:03;;;;;;;48.25;30.67;;;4.80;99.90;;;;;;5014822;28;20457;-42
2023/01/29 09:47:30;;;;;;;;;;;4.80;99.90;;;;;;5015062;28;20050;-39
2023/01/29 09:49:58;;;;;;;44.03;29.75;;;4.80;99.90;;;;;;5029761;28;19921;-50
2023/01/29 09:52:26;;;;;;;41.65;28.40;;;4.80;99.90;;;;;;5015277;28;20050;-48
2023/01/29 09:54:57;;;;;;;44.80;28.77;;;4.80;99.90;;;;;;5014744;28;20453;-44
2023/01/29 09:57:27;;;;;;;48.63;30.35;;;4.80;99.90;;;;;;5014970;28;20132;-43
2023/01/29 09:59:54;;;;;;;45.28;30.05;;;4.90;99.90;;;;;;5014471;28;20060;-45
2023/01/29 10:02:40;;;;;;;42.72;29.25;;;4.90;99.90;;;;;;5003523;28;20509;-44
2023/01/29 10:05:25;;;;;;;46.58;29.25;;;5.00;99.90;;;;;;5001857;28;20057;-46
2023/01/29 10:08:16;;;;;;;44.22;28.88;;;4.90;99.90;;;;;;5014273;28;20139;-43
2023/01/29 10:10:49;;;;;;;42.85;29.55;;;4.90;99.90;;;;;;5012365;28;20448;-43
2023/01/29 10:13:21;;;;;;;49.83;31.65;;;4.90;99.90;;;;;;5012701;28;20453;-45
2023/01/29 10:15:50;;;;;;;;;;;4.90;99.90;;;;;;5015422;28;20115;-46
2023/01/29 10:18:46;;;;;;;47.72;30.33;;;4.90;99.90;;;;;;5012543;28;19921;-46
2023/01/29 10:21:23;;;;;;;42.05;29.10;;;5.00;99.90;;;;;;4977105;28;20041;-45
2023/01/29 10:23:50;;;;;;;43.25;29.35;;;5.00;99.90;;;;;;5012318;28;20494;-49
2023/01/29 10:26:19;;;;;;;43.63;27.80;;;5.00;99.90;;;;;;5010536;28;20108;-43
2023/01/29 10:28:49;;;;;;;43.20;29.98;;;5.00;99.90;;;;;;5009962;28;20092;-42
2023/01/29 10:31:17;;;;;;;43.03;28.92;;;5.00;99.90;;;;;;5008749;28;20054;-47
2023/01/29 10:33:47;;;;;;;42.80;28.77;;;5.10;99.90;;;;;;5008281;28;20042;-46
2023/01/29 10:36:17;;;;;;;45.72;30.25;;;5.00;99.90;;;;;;5010890;28;20084;-46
2023/01/29 10:38:44;;;;;;;44.85;29.67;;;5.00;99.90;;;;;;5011547;28;20042;-48
2023/01/29 10:41:40;;;;;;;44.38;30.52;;;5.00;99.90;;;;;;5011988;28;20471;-46
2023/01/29 10:44:15;;;;;;;41.58;28.70;;;5.00;99.90;;;;;;5009650;28;20057;-47
2023/01/29 10:46:54;;;;;;;41.78;27.48;;;5.00;99.90;;;;;;5015091;28;20072;-42
2023/01/29 10:49:29;;;;;;;41.42;28.83;;;5.00;99.90;;;;;;5009667;28;20092;-47
2023/01/29 10:52:11;;;;;;;44.13;30.08;;;5.00;99.90;;;;;;5013311;28;20054;-49
2023/01/29 10:54:45;;;;;;;46.25;28.35;;;5.00;99.90;;;;;;5003647;28;20053;-45
2023/01/29 10:57:40;;;;;;;45.22;28.83;;;5.10;99.90;;;;;;5012021;28;20466;-42
2023/01/29 11:00:12;;;;;;;44.42;29.23;;;5.10;99.90;;;;;;4995532;28;20189;-49
2023/01/29 11:02:47;;;;;;;43.63;30.02;;;5.10;99.90;;;;;;5010415;28;20054;-50
2023/01/29 11:05:19;;;;;;;41.90;29.63;;;5.10;99.90;;;;;;5012923;28;20133;-48
2023/01/29 11:07:46;;;;;;;48.97;29.30;;;5.00;99.90;;;;;;5013761;28;20046;-46
2023/01/29 11:10:14;;;;;;;48.58;31.23;;;5.10;99.90;;;;;;5012149;28;20498;-45
2023/01/29 11:12:42;;;;;;;44.47;30.75;;;5.10;99.90;;;;;;5013548;28;20108;-47
2023/01/29 11:15:16;;;;;;;44.38;29.77;;;5.20;99.90;;;;;;5006454;28;20108;-48
2023/01/29 11:18:01;;;;;;;44.33;30.20;;;5.20;99.90;;;;;;5004148;28;20041;-48
2023/01/29 11:20:28;;;;;;;48.03;29.88;;;5.20;99.90;;;;;;5010207;28;20054;-42
2023/01/29 11:22:55;;;;;;;44.90;29.48;;;5.20;99.90;;;;;;5011447;28;20050;-47
2023/01/29 11:25:23;;;;;;;43.20;29.40;;;5.20;99.90;;;;;;5012637;28;20056;-43
2023/01/29 11:27:52;;;;;;;42.30;29.48;;;5.30;99.90;;;;;;5011477;28;20089;-48
2023/01/29 11:30:23;;;;;;;48.50;30.55;;;5.30;99.90;;;;;;5005193;28;20058;-47
2023/01/29 11:32:51;;;;;;;50.10;31.42;;;5.30;99.90;;;;;;5013580;28;20398;-48
2023/01/29 11:35:22;;;;;;;42.90;29.95;;;5.30;99.90;;;;;;5010010;28;20073;-45
2023/01/29 11:37:49;;;;;;;49.30;30.40;;;5.20;99.90;;;;;;5012422;28;20096;-46
2023/01/29 11:40:33;;;;;;;41.63;29.73;;;5.30;99.90;;;;;;5012470;28;20057;-48
2023/01/29 11:43:21;;;;;;;45.55;29.08;;;5.30;99.90;;;;;;5011893;28;20486;-45
2023/01/29 11:45:50;;;;;;;48.50;29.83;;;5.30;99.90;;;;;;5007355;28;20114;-46
2023/01/29 11:48:18;;;;;;;45.47;29.23;;;5.30;99.90;;;;;;5010407;28;20050;-43
2023/01/29 11:50:51;;;;;;;44.95;29.48;;;5.30;99.90;;;;;;5004842;28;20054;-48
2023/01/29 11:53:23;;;;;;;49.65;30.25;;;5.30;99.90;;;;;;5009887;28;20054;-44
2023/01/29 11:55:50;;;;;;;45.00;30.60;;;5.30;99.90;;;;;;5012986;28;20468;-49
2023/01/29 11:58:18;;;;;;;45.58;30.38;;;5.30;99.90;;;;;;5010057;28;20042;-41
2023/01/29 12:00:46;;;;;;;44.08;29.08;;;5.40;99.90;;;;;;5010795;28;20077;-50
2023/01/29 12:03:16;;;;;;;43.15;29.77;;;5.40;99.90;;;;;;5011041;28;20512;-42
2023/01/29 12:05:52;;;;;;;44.97;29.85;;;5.30;99.90;;;;;;5007346;28;20498;-46
2023/01/29 12:08:21;;;;;;;45.20;29.65;;;5.30;99.90;;;;;;5013577;28;20125;-43
2023/01/29 12:10:48;;;;;;;47.10;29.10;;;5.30;99.90;;;;;;5011624;28;20137;-42
2023/01/29 12:13:25;;;;;;;42.03;27.60;;;5.40;99.90;;;;;;5011758;28;20481;-44
2023/01/29 12:15:52;;;;;;;43.72;27.58;;;5.40;99.90;;;;;;5010979;28;20050;-44
2023/01/29 12:18:23;;;;;;;40.17;26.85;;;5.40;99.90;;;;;;5012416;28;20050;-42
2023/01/29 12:20:51;;;;;;;39.70;26.23;;;5.50;99.90;;;;;;5013258;28;20505;-46
2023/01/29 12:23:24;;;;;;;44.70;28.58;;;5.40;99.90;;;;;;5009021;28;20050;-48
2023/01/29 12:25:55;;;;;;;44.22;30.17;;;5.50;99.90;;;;;;5011294;28;20053;-48
2023/01/29 12:28:33;;;;;;;37.10;26.40;;;5.50;99.90;;;;;;4999666;28;20054;-42
2023/01/29 12:31:08;;;;;;;38.55;26.77;;;5.60;99.90;;;;;;5005678;28;20558;-44
2023/01/29 12:33:41;;;;;;;42.05;26.75;;;5.60;99.90;;;;;;5011463;28;20094;-45
2023/01/29 12:36:10;;;;;;;42.00;27.98;;;5.70;99.90;;;;;;5008006;28;20139;-44
2023/01/29 12:38:39;;;;;;;39.42;27.48;;;5.80;99.90;;;;;;5004515;28;20125;-45
2023/01/29 12:41:08;;;;;;;44.10;27.52;;;5.70;99.90;;;;;;5009674;28;20054;-42
2023/01/29 12:43:37;;;;;;;38.80;26.88;;;5.80;99.90;;;;;;5012744;28;20069;-48
2023/01/29 12:46:04;;;;;;;37.42;26.50;;;5.90;99.90;;;;;;5010824;28;20521;-45
2023/01/29 12:48:32;;;;;;;43.97;27.67;;;5.80;99.90;;;;;;5010090;28;20490;-42
2023/01/29 12:51:05;;;;;;;39.50;27.15;;;5.80;99.90;;;;;;5006780;28;20132;-44
2023/01/29 12:53:34;;;;;;;41.47;26.52;;;5.90;99.90;;;;;;5006612;28;20151;-45
2023/01/29 12:56:03;;;;;;;40.42;28.23;;;5.90;99.90;;;;;;5009449;28;20718;-46
2023/01/29 12:58:32;;;;;;;42.78;28.25;;;5.90;99.90;;;;;;5009479;28;20077;-50
2023/01/29 13:01:03;;;;;;;42.97;28.42;;;5.90;99.90;;;;;;5007770;28;20050;-45
2023/01/29 13:03:32;;;;;;;43.65;29.75;;;5.80;99.90;;;;;;5009768;28;20115;-48
2023/01/29 13:06:02;;;;;;;42.28;29.25;;;5.80;99.90;;;;;;5008992;28;20054;-43
2023/01/29 13:08:30;;;;;;;43.45;28.65;;;5.70;99.90;;;;;;5009947;28;20049;-46
2023/01/29 13:10:59;;;;;;;44.78;31.27;;;5.60;99.90;;;;;;5007520;28;20461;-46
2023/01/29 13:13:28;;;;;;;44.00;31.05;;;5.60;99.90;;;;;;5002927;28;20050;-44